sensor_id;sensor_type;location;lat;lon;timestamp;pressure;altitude;pressure_sealevel;temperature;humidity
39487;BME280;25173;50.430;18.926;2022-10-16T00:01:41;98401.50;;;16.66;64.35
39487;BME280;25173;50.430;18.926;2022-10-16T00:04:42;98405.34;;;16.65;64.60
39487;BME280;25173;50.430;18.926;2022-10-16T00:07:43;98411.97;;;16.64;64.72
39487;BME280;25173;50.430;18.926;2022-10-16T00:10:43;98409.22;;;16.64;64.71
39487;BME280;25173;50.430;18.926;2022-10-16T00:13:45;98406.47;;;16.64;64.72
39487;BME280;25173;50.430;18.926;2022-10-16T00:16:46;98407.06;;;16.61;64.72
39487;BME280;25173;50.430;18.926;2022-10-16T00:19:46;98403.91;;;16.54;64.71
39487;BME280;25173;50.430;18.926;2022-10-16T00:22:47;98405.13;;;16.48;64.98
39487;BME280;25173;50.430;18.926;2022-10-16T00:26:03;98396.38;;;16.46;65.37
39487;BME280;25173;50.430;18.926;2022-10-16T00:29:05;98398.09;;;16.42;65.27
39487;BME280;25173;50.430;18.926;2022-10-16T00:32:06;98401.69;;;16.43;65.19
39487;BME280;25173;50.430;18.926;2022-10-16T00:35:07;98402.97;;;16.45;65.16
39487;BME280;25173;50.430;18.926;2022-10-16T00:38:07;98402.38;;;16.48;65.20
39487;BME280;25173;50.430;18.926;2022-10-16T00:41:11;98403.06;;;16.54;65.13
39487;BME280;25173;50.430;18.926;2022-10-16T00:44:46;98401.16;;;16.54;65.29
39487;BME280;25173;50.430;18.926;2022-10-16T00:47:47;98403.72;;;16.51;64.94
39487;BME280;25173;50.430;18.926;2022-10-16T00:50:52;98405.53;;;16.55;64.88
39487;BME280;25173;50.430;18.926;2022-10-16T00:53:54;98408.50;;;16.59;65.03
39487;BME280;25173;50.430;18.926;2022-10-16T00:56:56;98405.22;;;16.57;65.05
39487;BME280;25173;50.430;18.926;2022-10-16T00:59:58;98406.47;;;16.51;64.89
39487;BME280;25173;50.430;18.926;2022-10-16T01:03:00;98410.94;;;16.47;65.24
39487;BME280;25173;50.430;18.926;2022-10-16T01:09:22;98413.78;;;16.42;65.20
39487;BME280;25173;50.430;18.926;2022-10-16T01:12:41;98410.63;;;16.35;65.39
39487;BME280;25173;50.430;18.926;2022-10-16T01:15:54;98397.50;;;16.31;65.21
39487;BME280;25173;50.430;18.926;2022-10-16T01:19:05;98405.31;;;16.24;65.25
39487;BME280;25173;50.430;18.926;2022-10-16T01:22:09;98406.56;;;16.18;65.45
39487;BME280;25173;50.430;18.926;2022-10-16T01:25:19;98406.25;;;16.20;65.57
39487;BME280;25173;50.430;18.926;2022-10-16T01:28:25;98415.09;;;16.17;65.65
39487;BME280;25173;50.430;18.926;2022-10-16T01:31:31;98409.59;;;16.17;65.58
39487;BME280;25173;50.430;18.926;2022-10-16T01:34:37;98409.72;;;16.12;65.71
39487;BME280;25173;50.430;18.926;2022-10-16T01:41:08;98408.69;;;16.08;65.97
39487;BME280;25173;50.430;18.926;2022-10-16T01:44:31;98410.94;;;16.06;66.26
39487;BME280;25173;50.430;18.926;2022-10-16T01:47:35;98402.97;;;16.04;66.08
39487;BME280;25173;50.430;18.926;2022-10-16T01:50:38;98409.59;;;16.03;66.07
39487;BME280;25173;50.430;18.926;2022-10-16T01:53:47;98411.53;;;16.03;66.16
39487;BME280;25173;50.430;18.926;2022-10-16T01:56:50;98406.13;;;15.98;66.27
39487;BME280;25173;50.430;18.926;2022-10-16T01:59:54;98416.06;;;15.93;66.40
39487;BME280;25173;50.430;18.926;2022-10-16T02:02:57;98420.56;;;15.89;66.41
39487;BME280;25173;50.430;18.926;2022-10-16T02:06:01;98425.25;;;15.89;66.39
39487;BME280;25173;50.430;18.926;2022-10-16T02:09:02;98429.91;;;15.88;66.36
39487;BME280;25173;50.430;18.926;2022-10-16T02:12:10;98434.59;;;15.88;66.51
39487;BME280;25173;50.430;18.926;2022-10-16T02:15:12;98436.03;;;15.85;66.63
39487;BME280;25173;50.430;18.926;2022-10-16T02:18:13;98437.13;;;15.84;66.69
39487;BME280;25173;50.430;18.926;2022-10-16T02:21:23;98438.44;;;15.87;66.96
39487;BME280;25173;50.430;18.926;2022-10-16T02:24:33;98433.19;;;15.90;66.88
39487;BME280;25173;50.430;18.926;2022-10-16T02:27:47;98433.19;;;15.90;67.01
39487;BME280;25173;50.430;18.926;2022-10-16T02:30:58;98431.44;;;15.95;66.67
39487;BME280;25173;50.430;18.926;2022-10-16T02:34:01;98421.38;;;15.90;66.79
39487;BME280;25173;50.430;18.926;2022-10-16T02:37:04;98426.34;;;15.88;66.91
39487;BME280;25173;50.430;18.926;2022-10-16T02:40:06;98428.09;;;15.84;67.17
39487;BME280;25173;50.430;18.926;2022-10-16T02:43:07;98433.34;;;15.80;66.93
39487;BME280;25173;50.430;18.926;2022-10-16T02:46:09;98428.47;;;15.77;66.96
39487;BME280;25173;50.430;18.926;2022-10-16T02:49:10;98430.69;;;15.75;67.07
39487;BME280;25173;50.430;18.926;2022-10-16T02:52:10;98436.19;;;15.75;67.03
39487;BME280;25173;50.430;18.926;2022-10-16T02:55:11;98443.38;;;15.71;67.14
39487;BME280;25173;50.430;18.926;2022-10-16T02:58:12;98449.28;;;15.65;67.18
39487;BME280;25173;50.430;18.926;2022-10-16T03:01:12;98444.09;;;15.63;67.48
39487;BME280;25173;50.430;18.926;2022-10-16T03:04:14;98451.81;;;15.61;67.45
39487;BME280;25173;50.430;18.926;2022-10-16T03:07:15;98454.66;;;15.56;67.52
39487;BME280;25173;50.430;18.926;2022-10-16T03:10:17;98449.19;;;15.51;67.78
39487;BME280;25173;50.430;18.926;2022-10-16T03:13:18;98457.44;;;15.51;67.82
39487;BME280;25173;50.430;18.926;2022-10-16T03:16:20;98459.06;;;15.52;67.80
39487;BME280;25173;50.430;18.926;2022-10-16T03:19:21;98456.25;;;15.57;67.80
39487;BME280;25173;50.430;18.926;2022-10-16T03:22:21;98466.06;;;15.63;67.77
39487;BME280;25173;50.430;18.926;2022-10-16T03:25:22;98466.50;;;15.70;67.61
39487;BME280;25173;50.430;18.926;2022-10-16T03:28:23;98471.91;;;15.75;67.43
39487;BME280;25173;50.430;18.926;2022-10-16T03:31:23;98474.34;;;15.77;67.63
39487;BME280;25173;50.430;18.926;2022-10-16T03:34:24;98476.28;;;15.76;67.47
39487;BME280;25173;50.430;18.926;2022-10-16T03:37:25;98478.31;;;15.71;67.51
39487;BME280;25173;50.430;18.926;2022-10-16T03:40:26;98482.44;;;15.68;67.60
39487;BME280;25173;50.430;18.926;2022-10-16T03:43:27;98478.06;;;15.67;67.66
39487;BME280;25173;50.430;18.926;2022-10-16T03:46:27;98486.81;;;15.69;67.48
39487;BME280;25173;50.430;18.926;2022-10-16T03:49:28;98484.56;;;15.71;67.59
39487;BME280;25173;50.430;18.926;2022-10-16T03:52:28;98480.44;;;15.74;67.64
39487;BME280;25173;50.430;18.926;2022-10-16T03:55:29;98484.50;;;15.76;67.33
39487;BME280;25173;50.430;18.926;2022-10-16T03:58:30;98479.50;;;15.78;67.24
39487;BME280;25173;50.430;18.926;2022-10-16T04:01:30;98484.22;;;15.78;67.54
39487;BME280;25173;50.430;18.926;2022-10-16T04:04:31;98478.72;;;15.78;67.30
39487;BME280;25173;50.430;18.926;2022-10-16T04:07:31;98487.47;;;15.80;67.33
39487;BME280;25173;50.430;18.926;2022-10-16T04:10:32;98479.75;;;15.82;67.34
39487;BME280;25173;50.430;18.926;2022-10-16T04:13:33;98486.56;;;15.84;67.50
39487;BME280;25173;50.430;18.926;2022-10-16T04:16:33;98491.69;;;15.91;67.52
39487;BME280;25173;50.430;18.926;2022-10-16T04:19:34;98489.13;;;15.95;67.34
39487;BME280;25173;50.430;18.926;2022-10-16T04:22:34;98500.06;;;16.00;67.31
39487;BME280;25173;50.430;18.926;2022-10-16T04:25:35;98500.56;;;16.02;67.29
39487;BME280;25173;50.430;18.926;2022-10-16T04:28:36;98490.09;;;16.04;66.99
39487;BME280;25173;50.430;18.926;2022-10-16T04:31:36;98491.19;;;16.03;67.00
39487;BME280;25173;50.430;18.926;2022-10-16T04:34:39;98479.09;;;16.04;66.79
39487;BME280;25173;50.430;18.926;2022-10-16T04:37:39;98480.31;;;15.98;66.48
39487;BME280;25173;50.430;18.926;2022-10-16T04:40:42;98487.31;;;15.90;66.43
39487;BME280;25173;50.430;18.926;2022-10-16T04:43:42;98475.38;;;15.81;66.57
39487;BME280;25173;50.430;18.926;2022-10-16T04:46:43;98486.22;;;15.72;66.49
39487;BME280;25173;50.430;18.926;2022-10-16T04:49:44;98497.88;;;15.64;66.64
39487;BME280;25173;50.430;18.926;2022-10-16T04:52:45;98507.94;;;15.50;66.63
39487;BME280;25173;50.430;18.926;2022-10-16T04:55:45;98504.47;;;15.26;66.73
39487;BME280;25173;50.430;18.926;2022-10-16T04:58:46;98508.53;;;15.09;67.29
39487;BME280;25173;50.430;18.926;2022-10-16T05:01:47;98511.41;;;14.99;67.61
39487;BME280;25173;50.430;18.926;2022-10-16T05:04:48;98505.41;;;14.97;67.69
39487;BME280;25173;50.430;18.926;2022-10-16T05:07:48;98508.94;;;14.98;67.42
39487;BME280;25173;50.430;18.926;2022-10-16T05:10:49;98512.03;;;14.96;67.49
39487;BME280;25173;50.430;18.926;2022-10-16T05:13:50;98528.75;;;14.95;67.80
39487;BME280;25173;50.430;18.926;2022-10-16T05:16:51;98523.00;;;14.96;67.92
39487;BME280;25173;50.430;18.926;2022-10-16T05:19:52;98522.91;;;15.01;68.12
39487;BME280;25173;50.430;18.926;2022-10-16T05:22:52;98526.69;;;15.05;68.45
39487;BME280;25173;50.430;18.926;2022-10-16T05:25:55;98538.34;;;15.16;68.58
39487;BME280;25173;50.430;18.926;2022-10-16T05:28:55;98529.69;;;15.28;68.53
39487;BME280;25173;50.430;18.926;2022-10-16T05:31:56;98529.53;;;15.38;68.58
39487;BME280;25173;50.430;18.926;2022-10-16T05:34:56;98536.50;;;15.49;68.57
39487;BME280;25173;50.430;18.926;2022-10-16T05:37:59;98528.69;;;15.61;68.66
39487;BME280;25173;50.430;18.926;2022-10-16T05:41:01;98539.72;;;15.75;68.36
39487;BME280;25173;50.430;18.926;2022-10-16T05:44:05;98534.28;;;15.88;68.20
39487;BME280;25173;50.430;18.926;2022-10-16T05:47:06;98542.97;;;15.96;68.13
39487;BME280;25173;50.430;18.926;2022-10-16T05:50:07;98550.25;;;16.05;67.96
39487;BME280;25173;50.430;18.926;2022-10-16T05:53:08;98559.63;;;16.18;67.77
39487;BME280;25173;50.430;18.926;2022-10-16T05:56:10;98560.00;;;16.30;67.52
39487;BME280;25173;50.430;18.926;2022-10-16T05:59:11;98565.81;;;16.42;67.43
39487;BME280;25173;50.430;18.926;2022-10-16T06:02:12;98563.69;;;16.53;67.16
39487;BME280;25173;50.430;18.926;2022-10-16T06:05:13;98565.47;;;16.62;67.00
39487;BME280;25173;50.430;18.926;2022-10-16T06:08:14;98564.16;;;16.74;66.86
39487;BME280;25173;50.430;18.926;2022-10-16T06:11:17;98577.41;;;16.85;66.74
39487;BME280;25173;50.430;18.926;2022-10-16T06:14:18;98580.28;;;16.94;66.40
39487;BME280;25173;50.430;18.926;2022-10-16T06:17:19;98579.56;;;17.02;66.14
39487;BME280;25173;50.430;18.926;2022-10-16T06:20:19;98576.09;;;17.10;66.02
39487;BME280;25173;50.430;18.926;2022-10-16T06:23:20;98585.25;;;17.19;65.95
39487;BME280;25173;50.430;18.926;2022-10-16T06:26:23;98586.47;;;17.27;65.71
39487;BME280;25173;50.430;18.926;2022-10-16T06:29:23;98591.25;;;17.35;65.55
39487;BME280;25173;50.430;18.926;2022-10-16T06:32:24;98603.47;;;17.42;65.18
39487;BME280;25173;50.430;18.926;2022-10-16T06:35:25;98600.94;;;17.46;65.08
39487;BME280;25173;50.430;18.926;2022-10-16T06:38:25;98602.97;;;17.54;65.10
39487;BME280;25173;50.430;18.926;2022-10-16T06:41:26;98600.91;;;17.60;65.04
39487;BME280;25173;50.430;18.926;2022-10-16T06:44:26;98605.22;;;17.66;64.74
39487;BME280;25173;50.430;18.926;2022-10-16T06:47:27;98611.75;;;17.70;64.58
39487;BME280;25173;50.430;18.926;2022-10-16T06:50:27;98611.81;;;17.78;64.34
39487;BME280;25173;50.430;18.926;2022-10-16T06:53:31;98612.31;;;17.80;64.43
39487;BME280;25173;50.430;18.926;2022-10-16T06:56:33;98620.28;;;17.82;64.10
39487;BME280;25173;50.430;18.926;2022-10-16T06:59:34;98616.41;;;17.83;64.19
39487;BME280;25173;50.430;18.926;2022-10-16T07:02:34;98609.25;;;17.82;64.02
39487;BME280;25173;50.430;18.926;2022-10-16T07:05:42;98610.66;;;17.93;63.95
39487;BME280;25173;50.430;18.926;2022-10-16T07:08:44;98613.31;;;17.98;63.91
39487;BME280;25173;50.430;18.926;2022-10-16T07:11:45;98615.41;;;18.01;63.67
39487;BME280;25173;50.430;18.926;2022-10-16T07:14:46;98619.81;;;18.02;63.72
39487;BME280;25173;50.430;18.926;2022-10-16T07:17:46;98627.78;;;18.04;63.47
39487;BME280;25173;50.430;18.926;2022-10-16T07:20:47;98623.16;;;18.13;63.65
39487;BME280;25173;50.430;18.926;2022-10-16T07:23:52;98625.28;;;18.16;63.22
39487;BME280;25173;50.430;18.926;2022-10-16T07:26:53;98622.59;;;18.24;63.42
39487;BME280;25173;50.430;18.926;2022-10-16T07:29:53;98628.47;;;18.32;63.02
39487;BME280;25173;50.430;18.926;2022-10-16T07:32:54;98632.94;;;18.41;62.70
39487;BME280;25173;50.430;18.926;2022-10-16T07:35:54;98626.97;;;18.48;62.39
39487;BME280;25173;50.430;18.926;2022-10-16T07:38:55;98620.84;;;18.51;62.15
39487;BME280;25173;50.430;18.926;2022-10-16T07:41:56;98628.16;;;18.55;62.19
39487;BME280;25173;50.430;18.926;2022-10-16T07:44:56;98627.88;;;18.57;61.63
39487;BME280;25173;50.430;18.926;2022-10-16T07:47:57;98638.59;;;18.58;61.62
39487;BME280;25173;50.430;18.926;2022-10-16T07:50:59;98639.44;;;18.59;61.61
39487;BME280;25173;50.430;18.926;2022-10-16T07:53:59;98643.78;;;18.60;61.46
39487;BME280;25173;50.430;18.926;2022-10-16T07:57:00;98645.69;;;18.73;61.28
39487;BME280;25173;50.430;18.926;2022-10-16T08:00:01;98645.28;;;18.88;61.03
39487;BME280;25173;50.430;18.926;2022-10-16T08:03:01;98648.63;;;19.08;61.16
39487;BME280;25173;50.430;18.926;2022-10-16T08:06:03;98650.00;;;19.27;60.46
39487;BME280;25173;50.430;18.926;2022-10-16T08:09:05;98649.94;;;19.50;60.00
39487;BME280;25173;50.430;18.926;2022-10-16T08:12:06;98650.16;;;19.79;59.71
39487;BME280;25173;50.430;18.926;2022-10-16T08:15:07;98647.94;;;19.98;58.76
39487;BME280;25173;50.430;18.926;2022-10-16T08:18:09;98644.69;;;20.13;58.34
39487;BME280;25173;50.430;18.926;2022-10-16T08:21:16;98654.31;;;20.33;57.97
39487;BME280;25173;50.430;18.926;2022-10-16T08:24:17;98660.31;;;20.61;57.86
39487;BME280;25173;50.430;18.926;2022-10-16T08:27:17;98664.03;;;20.82;57.10
39487;BME280;25173;50.430;18.926;2022-10-16T08:30:19;98665.78;;;21.04;56.76
39487;BME280;25173;50.430;18.926;2022-10-16T08:33:20;98666.72;;;21.25;56.32
39487;BME280;25173;50.430;18.926;2022-10-16T08:36:21;98664.75;;;21.26;55.92
39487;BME280;25173;50.430;18.926;2022-10-16T08:39:21;98673.69;;;21.32;55.57
39487;BME280;25173;50.430;18.926;2022-10-16T08:46:08;98681.63;;;21.42;54.66
39487;BME280;25173;50.430;18.926;2022-10-16T08:49:15;98676.03;;;21.50;54.87
39487;BME280;25173;50.430;18.926;2022-10-16T08:52:16;98677.31;;;21.61;54.68
39487;BME280;25173;50.430;18.926;2022-10-16T08:55:31;98681.72;;;21.62;52.79
39487;BME280;25173;50.430;18.926;2022-10-16T08:58:34;98683.38;;;21.55;54.40
39487;BME280;25173;50.430;18.926;2022-10-16T09:01:45;98683.00;;;21.65;53.35
39487;BME280;25173;50.430;18.926;2022-10-16T09:04:54;98686.25;;;21.67;53.88
39487;BME280;25173;50.430;18.926;2022-10-16T09:14:38;98679.22;;;21.69;52.86
39487;BME280;25173;50.430;18.926;2022-10-16T09:23:47;98690.69;;;21.59;54.61
39487;BME280;25173;50.430;18.926;2022-10-16T09:26:47;98685.16;;;21.59;53.84
39487;BME280;25173;50.430;18.926;2022-10-16T09:29:48;98691.78;;;21.67;53.68
39487;BME280;25173;50.430;18.926;2022-10-16T09:32:51;98687.78;;;21.85;54.01
39487;BME280;25173;50.430;18.926;2022-10-16T09:35:54;98699.59;;;22.03;53.58
39487;BME280;25173;50.430;18.926;2022-10-16T09:39:07;98688.94;;;22.14;51.90
39487;BME280;25173;50.430;18.926;2022-10-16T09:42:11;98695.44;;;22.18;53.23
39487;BME280;25173;50.430;18.926;2022-10-16T09:45:22;98698.47;;;22.25;52.45
39487;BME280;25173;50.430;18.926;2022-10-16T09:48:42;98702.81;;;22.14;52.49
39487;BME280;25173;50.430;18.926;2022-10-16T09:51:43;98710.56;;;21.99;52.91
39487;BME280;25173;50.430;18.926;2022-10-16T09:54:50;98701.94;;;21.92;52.79
39487;BME280;25173;50.430;18.926;2022-10-16T09:57:52;98699.75;;;21.77;53.41
39487;BME280;25173;50.430;18.926;2022-10-16T10:00:53;98707.94;;;21.65;53.36
39487;BME280;25173;50.430;18.926;2022-10-16T10:03:56;98708.78;;;21.57;53.71
39487;BME280;25173;50.430;18.926;2022-10-16T10:07:01;98698.00;;;21.64;53.89
39487;BME280;25173;50.430;18.926;2022-10-16T10:10:04;98710.88;;;21.68;53.93
39487;BME280;25173;50.430;18.926;2022-10-16T10:13:20;98714.56;;;21.81;53.57
39487;BME280;25173;50.430;18.926;2022-10-16T10:16:24;98709.78;;;21.90;54.04
39487;BME280;25173;50.430;18.926;2022-10-16T10:19:26;98709.56;;;21.95;53.83
39487;BME280;25173;50.430;18.926;2022-10-16T10:22:41;98710.56;;;21.99;52.95
39487;BME280;25173;50.430;18.926;2022-10-16T10:25:46;98707.44;;;22.01;53.37
39487;BME280;25173;50.430;18.926;2022-10-16T10:32:58;98708.41;;;22.05;52.72
39487;BME280;25173;50.430;18.926;2022-10-16T10:39:32;98702.13;;;22.17;53.26
39487;BME280;25173;50.430;18.926;2022-10-16T10:42:47;98707.81;;;22.20;52.80
39487;BME280;25173;50.430;18.926;2022-10-16T10:46:01;98703.69;;;22.26;52.54
39487;BME280;25173;50.430;18.926;2022-10-16T10:49:46;98706.81;;;22.25;52.06
39487;BME280;25173;50.430;18.926;2022-10-16T11:02:45;98704.13;;;22.37;52.44
39487;BME280;25173;50.430;18.926;2022-10-16T11:06:00;98712.44;;;22.37;52.32
39487;BME280;25173;50.430;18.926;2022-10-16T11:12:31;98717.72;;;22.51;52.50
39487;BME280;25173;50.430;18.926;2022-10-16T11:15:37;98718.06;;;22.49;52.34
39487;BME280;25173;50.430;18.926;2022-10-16T11:18:56;98712.03;;;22.47;52.13
39487;BME280;25173;50.430;18.926;2022-10-16T11:22:06;98709.41;;;22.51;52.46
39487;BME280;25173;50.430;18.926;2022-10-16T11:25:30;98702.28;;;22.41;51.40
39487;BME280;25173;50.430;18.926;2022-10-16T11:28:37;98704.13;;;22.37;52.19
39487;BME280;25173;50.430;18.926;2022-10-16T11:31:44;98704.56;;;22.39;52.28
39487;BME280;25173;50.430;18.926;2022-10-16T11:34:57;98703.41;;;22.40;51.81
39487;BME280;25173;50.430;18.926;2022-10-16T11:38:02;98700.03;;;22.34;52.63
39487;BME280;25173;50.430;18.926;2022-10-16T11:41:32;98704.25;;;22.40;51.53
39487;BME280;25173;50.430;18.926;2022-10-16T11:47:59;98707.75;;;22.70;51.45
39487;BME280;25173;50.430;18.926;2022-10-16T11:57:31;98709.69;;;23.23;50.18
39487;BME280;25173;50.430;18.926;2022-10-16T12:00:45;98719.59;;;23.45;50.48
39487;BME280;25173;50.430;18.926;2022-10-16T12:04:17;98722.41;;;23.82;48.92
39487;BME280;25173;50.430;18.926;2022-10-16T12:07:25;98724.03;;;24.07;49.22
39487;BME280;25173;50.430;18.926;2022-10-16T12:10:29;98727.88;;;24.27;49.03
39487;BME280;25173;50.430;18.926;2022-10-16T12:16:32;98735.06;;;24.04;48.72
39487;BME280;25173;50.430;18.926;2022-10-16T12:19:33;98735.75;;;23.88;49.25
39487;BME280;25173;50.430;18.926;2022-10-16T12:22:34;98724.72;;;23.80;49.28
39487;BME280;25173;50.430;18.926;2022-10-16T12:25:39;98737.97;;;23.71;49.19
39487;BME280;25173;50.430;18.926;2022-10-16T12:28:46;98729.13;;;23.81;49.20
39487;BME280;25173;50.430;18.926;2022-10-16T12:31:49;98736.78;;;23.96;49.21
39487;BME280;25173;50.430;18.926;2022-10-16T12:34:50;98728.19;;;24.01;48.78
39487;BME280;25173;50.430;18.926;2022-10-16T12:37:51;98730.06;;;24.09;48.97
39487;BME280;25173;50.430;18.926;2022-10-16T12:41:08;98722.56;;;24.22;48.30
39487;BME280;25173;50.430;18.926;2022-10-16T12:44:24;98731.69;;;24.10;47.80
39487;BME280;25173;50.430;18.926;2022-10-16T12:50:36;98728.81;;;24.07;48.58
39487;BME280;25173;50.430;18.926;2022-10-16T12:53:37;98731.00;;;24.13;49.02
39487;BME280;25173;50.430;18.926;2022-10-16T12:56:43;98729.16;;;24.05;48.52
39487;BME280;25173;50.430;18.926;2022-10-16T13:00:00;98735.19;;;24.07;48.24
39487;BME280;25173;50.430;18.926;2022-10-16T13:03:32;98731.69;;;24.10;48.10
39487;BME280;25173;50.430;18.926;2022-10-16T13:10:18;98738.88;;;24.11;48.20
39487;BME280;25173;50.430;18.926;2022-10-16T13:13:42;98733.75;;;24.01;48.27
39487;BME280;25173;50.430;18.926;2022-10-16T13:23:38;98732.25;;;23.55;49.12
39487;BME280;25173;50.430;18.926;2022-10-16T13:26:52;98749.06;;;23.58;48.94
39487;BME280;25173;50.430;18.926;2022-10-16T13:30:12;98743.59;;;23.50;48.75
39487;BME280;25173;50.430;18.926;2022-10-16T13:36:34;98739.13;;;23.25;49.60
39487;BME280;25173;50.430;18.926;2022-10-16T13:39:35;98730.19;;;23.19;49.87
39487;BME280;25173;50.430;18.926;2022-10-16T13:42:36;98728.72;;;23.34;50.18
39487;BME280;25173;50.430;18.926;2022-10-16T13:45:36;98736.34;;;23.70;49.41
39487;BME280;25173;50.430;18.926;2022-10-16T13:48:37;98732.75;;;24.06;49.47
39487;BME280;25173;50.430;18.926;2022-10-16T13:51:38;98733.56;;;24.30;48.86
39487;BME280;25173;50.430;18.926;2022-10-16T13:54:38;98720.97;;;24.49;48.01
39487;BME280;25173;50.430;18.926;2022-10-16T13:57:40;98721.59;;;24.70;47.81
39487;BME280;25173;50.430;18.926;2022-10-16T14:00:56;98729.91;;;24.94;47.27
39487;BME280;25173;50.430;18.926;2022-10-16T14:04:08;98734.19;;;25.20;47.21
39487;BME280;25173;50.430;18.926;2022-10-16T14:07:23;98741.88;;;25.38;46.15
39487;BME280;25173;50.430;18.926;2022-10-16T14:10:30;98753.84;;;25.39;46.32
39487;BME280;25173;50.430;18.926;2022-10-16T14:13:38;98770.22;;;25.40;46.04
39487;BME280;25173;50.430;18.926;2022-10-16T14:16:41;98778.03;;;25.35;45.96
39487;BME280;25173;50.430;18.926;2022-10-16T14:19:46;98771.56;;;25.31;46.04
39487;BME280;25173;50.430;18.926;2022-10-16T14:22:58;98776.13;;;25.23;45.77
39487;BME280;25173;50.430;18.926;2022-10-16T14:29:15;98768.75;;;24.63;46.70
39487;BME280;25173;50.430;18.926;2022-10-16T14:32:23;98772.03;;;24.41;46.79
39487;BME280;25173;50.430;18.926;2022-10-16T14:35:30;98771.47;;;24.35;47.11
39487;BME280;25173;50.430;18.926;2022-10-16T14:38:32;98758.34;;;24.48;47.18
39487;BME280;25173;50.430;18.926;2022-10-16T14:41:41;98763.50;;;24.73;46.53
39487;BME280;25173;50.430;18.926;2022-10-16T14:44:43;98769.84;;;24.86;46.37
39487;BME280;25173;50.430;18.926;2022-10-16T14:47:52;98775.25;;;24.67;46.09
39487;BME280;25173;50.430;18.926;2022-10-16T14:50:54;98780.75;;;24.27;46.76
39487;BME280;25173;50.430;18.926;2022-10-16T14:53:54;98785.16;;;23.91;47.29
39487;BME280;25173;50.430;18.926;2022-10-16T14:56:58;98784.44;;;23.70;47.78
39487;BME280;25173;50.430;18.926;2022-10-16T14:59:59;98783.34;;;23.50;48.42
39487;BME280;25173;50.430;18.926;2022-10-16T15:03:00;98766.59;;;23.38;48.35
39487;BME280;25173;50.430;18.926;2022-10-16T15:06:00;98768.00;;;23.44;48.71
39487;BME280;25173;50.430;18.926;2022-10-16T15:09:01;98780.91;;;23.49;48.45
39487;BME280;25173;50.430;18.926;2022-10-16T15:12:01;98787.75;;;23.51;48.79
39487;BME280;25173;50.430;18.926;2022-10-16T15:15:20;98783.53;;;23.45;48.35
39487;BME280;25173;50.430;18.926;2022-10-16T15:18:21;98781.81;;;23.20;48.57
39487;BME280;25173;50.430;18.926;2022-10-16T15:21:30;98778.47;;;22.94;49.13
39487;BME280;25173;50.430;18.926;2022-10-16T15:24:31;98784.41;;;22.63;49.38
39487;BME280;25173;50.430;18.926;2022-10-16T15:27:32;98784.13;;;22.35;50.04
39487;BME280;25173;50.430;18.926;2022-10-16T15:30:40;98795.31;;;22.18;50.09
39487;BME280;25173;50.430;18.926;2022-10-16T15:33:42;98797.38;;;22.00;50.69
39487;BME280;25173;50.430;18.926;2022-10-16T15:36:42;98800.72;;;21.76;51.09
39487;BME280;25173;50.430;18.926;2022-10-16T15:39:43;98799.31;;;21.61;51.18
39487;BME280;25173;50.430;18.926;2022-10-16T15:42:43;98800.78;;;21.50;51.77
39487;BME280;25173;50.430;18.926;2022-10-16T15:45:58;98817.59;;;21.37;52.14
39487;BME280;25173;50.430;18.926;2022-10-16T15:49:00;98819.63;;;21.19;52.10
39487;BME280;25173;50.430;18.926;2022-10-16T15:52:01;98812.59;;;21.04;52.59
39487;BME280;25173;50.430;18.926;2022-10-16T15:55:01;98810.31;;;20.89;52.99
39487;BME280;25173;50.430;18.926;2022-10-16T15:58:02;98818.28;;;20.73;53.49
39487;BME280;25173;50.430;18.926;2022-10-16T16:01:03;98816.94;;;20.62;53.63
39487;BME280;25173;50.430;18.926;2022-10-16T16:04:04;98820.06;;;20.52;53.97
39487;BME280;25173;50.430;18.926;2022-10-16T16:07:05;98817.25;;;20.43;54.16
39487;BME280;25173;50.430;18.926;2022-10-16T16:10:10;98821.13;;;20.34;54.44
39487;BME280;25173;50.430;18.926;2022-10-16T16:13:11;98815.03;;;20.23;54.38
39487;BME280;25173;50.430;18.926;2022-10-16T16:16:14;98833.25;;;20.15;54.77
39487;BME280;25173;50.430;18.926;2022-10-16T16:19:15;98835.66;;;20.08;55.04
39487;BME280;25173;50.430;18.926;2022-10-16T16:22:18;98852.72;;;20.02;55.10
39487;BME280;25173;50.430;18.926;2022-10-16T16:25:18;98854.00;;;19.96;55.43
39487;BME280;25173;50.430;18.926;2022-10-16T16:28:19;98848.63;;;19.91;55.35
39487;BME280;25173;50.430;18.926;2022-10-16T16:31:23;98852.53;;;19.90;55.73
39487;BME280;25173;50.430;18.926;2022-10-16T16:34:26;98860.97;;;19.85;55.81
39487;BME280;25173;50.430;18.926;2022-10-16T16:37:26;98861.59;;;19.82;55.79
39487;BME280;25173;50.430;18.926;2022-10-16T16:40:27;98864.97;;;19.78;56.30
39487;BME280;25173;50.430;18.926;2022-10-16T16:43:27;98865.44;;;19.72;56.28
39487;BME280;25173;50.430;18.926;2022-10-16T16:46:28;98874.47;;;19.64;56.33
39487;BME280;25173;50.430;18.926;2022-10-16T16:49:29;98872.69;;;19.59;56.60
39487;BME280;25173;50.430;18.926;2022-10-16T16:52:30;98884.19;;;19.53;56.79
39487;BME280;25173;50.430;18.926;2022-10-16T16:55:32;98892.25;;;19.49;56.86
39487;BME280;25173;50.430;18.926;2022-10-16T16:58:33;98890.72;;;19.43;56.94
39487;BME280;25173;50.430;18.926;2022-10-16T17:01:34;98890.56;;;19.39;57.22
39487;BME280;25173;50.430;18.926;2022-10-16T17:04:35;98897.53;;;19.37;57.24
39487;BME280;25173;50.430;18.926;2022-10-16T17:07:35;98905.28;;;19.35;57.51
39487;BME280;25173;50.430;18.926;2022-10-16T17:10:42;98910.81;;;19.35;57.60
39487;BME280;25173;50.430;18.926;2022-10-16T17:13:44;98911.63;;;19.35;57.57
39487;BME280;25173;50.430;18.926;2022-10-16T17:16:44;98912.47;;;19.36;57.52
39487;BME280;25173;50.430;18.926;2022-10-16T17:19:45;98915.44;;;19.39;57.61